Monday, August 3, 2015, 4:35 AM EDT

KOXB, Ocean City Municipal Airport

Location: Berlin, MD, United States Lat: 38.317
Local Time: 4:35 AM EDT ( 8:35 GMT) Lon: -75.117
Time Zone: US/Eastern Elev: 13 ft

Show me the last for .
Show Decoded

2015-08-03 03:53 METAR KOXB 030753Z AUTO 00000KT 6SM BR CLR 18/18 A2988 RMK AO2 SLP118 T01830178
                 TSNO =
2015-08-03 03:22 METAR KOXB 030722Z AUTO 00000KT 3SM BR FEW003 19/18 A2988 RMK AO2 T01890183 TSNO
                 =
2015-08-03 03:19 METAR KOXB 030719Z AUTO 00000KT 1 3/4SM BR FEW003 19/18 A2988 RMK AO2 VIS 1/2V5
                 T01890183 TSNO =
2015-08-03 03:12 METAR KOXB 030712Z AUTO 00000KT 1/2SM FG VV003 19/19 A2988 RMK AO2 T01890189
                 TSNO =
2015-08-03 03:04 METAR KOXB 030704Z AUTO 00000KT 1/4SM FG VV003 19/18 A2988 RMK AO2 T01890183
                 TSNO =
2015-08-03 02:55 METAR KOXB 030655Z AUTO 00000KT 3/4SM BR VV003 19/19 A2988 RMK AO2 T01940189
                 TSNO =
2015-08-03 02:51 METAR KOXB 030651Z AUTO 00000KT 1 1/2SM BR CLR 19/19 A2989 RMK AO2 SLP120
                 T01940189 TSNO =
2015-08-03 02:50 METAR KOXB 030650Z AUTO 00000KT 1SM BR CLR 19/19 A2989 RMK AO2 TSNO =
2015-08-03 02:33 METAR KOXB 030633Z AUTO 32003KT 1/4SM FG CLR 19/19 A2990 RMK AO2 T01890189 TSNO
                 =
2015-08-03 02:24 METAR KOXB 030624Z AUTO 00000KT 1/2SM FG VV003 19/18 A2989 RMK AO2 T01940183
                 TSNO =
2015-08-03 01:57 METAR KOXB 030557Z AUTO 00000KT 1/4SM FG VV003 19/19 A2989 RMK AO2 T01940189
                 TSNO =
2015-08-03 01:55 METAR KOXB 030555Z AUTO 00000KT 1/2SM FG CLR 19/19 A2990 RMK AO2 T01890189 TSNO
                 =
2015-08-03 01:53 METAR KOXB 030553Z AUTO 00000KT 2SM BR CLR 19/19 A2990 RMK AO2 SLP123 T01940194
                 10261 20189 58009 TSNO =
2015-08-03 01:42 METAR KOXB 030542Z AUTO 00000KT 2SM BR CLR 21/19 A2990 RMK AO2 VIS 1V3 T02060194
                 TSNO =
2015-08-03 01:36 METAR KOXB 030536Z AUTO 00000KT 1/2SM FG CLR 19/19 A2990 RMK AO2 T01940189 TSNO
                 =
2015-08-03 01:28 METAR KOXB 030528Z AUTO 00000KT 1 1/2SM BR CLR 20/19 A2990 RMK AO2 T02000194
                 TSNO =
2015-08-03 00:53 METAR KOXB 030453Z AUTO 00000KT 3SM BR CLR 21/20 A2991 RMK AO2 SLP129 T02060200
                 402940172 TSNO =
2015-08-03 00:51 METAR KOXB 030451Z AUTO 17003KT 2SM BR CLR 21/20 A2991 RMK AO2 TSNO =
2015-08-03 00:46 METAR KOXB 030446Z AUTO 00000KT 3/4SM BR CLR 20/19 A2991 RMK AO2 T02000194 TSNO
                 =
2015-08-03 00:34 METAR KOXB 030434Z AUTO 00000KT 1 1/2SM BR CLR 20/19 A2991 RMK AO2 VIS 1/2V5
                 T02000194 TSNO =
2015-08-03 00:28 METAR KOXB 030428Z AUTO 00000KT 5SM BR CLR 21/20 A2991 RMK AO2 T02060200 TSNO =
2015-08-03 00:11 METAR KOXB 030411Z AUTO 00000KT 2SM BR CLR 21/20 A2991 RMK AO2 VIS 1 1/4V3
                 T02110200 TSNO =
2015-08-03 00:02 METAR KOXB 030402Z AUTO 00000KT 3/4SM BR CLR 21/20 A2992 RMK AO2 T02110200 TSNO
                 =
2015-08-02 23:53 METAR KOXB 030353Z AUTO 00000KT 4SM BR CLR 22/21 A2992 RMK AO2 SLP131 T02170206
                 TSNO =
2015-08-02 23:44 METAR KOXB 030344Z AUTO 00000KT 2 1/2SM BR CLR 22/20 A2992 RMK AO2 T02170200
                 TSNO =
2015-08-02 22:53 METAR KOXB 030253Z AUTO 00000KT 8SM CLR 24/22 A2992 RMK AO2 SLP132 T02390222
                 50004 TSNO =
2015-08-02 21:53 METAR KOXB 030153Z AUTO 00000KT 9SM CLR 25/22 A2993 RMK AO2 SLP136 T02500222
                 TSNO =
2015-08-02 20:53 METAR KOXB 030053Z AUTO 20003KT 10SM CLR 26/22 A2991 RMK AO2 SLP129 T02560222
                 TSNO =
2015-08-02 19:53 METAR KOXB 022353Z AUTO 18003KT 10SM CLR 26/21 A2991 RMK AO2 SLP128 T02610211
                 10289 20261 58008 TSNO =
2015-08-02 18:53 METAR KOXB 022253Z AUTO 17003KT 10SM CLR 27/21 A2992 RMK AO2 SLP130 T02670206
                 TSNO =
2015-08-02 17:53 METAR KOXB 022153Z AUTO 15003KT 10SM CLR 27/19 A2993 RMK AO2 SLP134 T02670189
                 TSNO =
2015-08-02 16:53 METAR KOXB 022053Z AUTO 13003KT 10SM CLR 27/19 A2993 RMK AO2 SLP136 T02670194
                 56004 TSNO =
2015-08-02 15:53 METAR KOXB 021953Z AUTO 12005KT 10SM CLR 27/21 A2993 RMK AO2 SLP136 T02670206
                 TSNO =
2015-08-02 14:53 METAR KOXB 021853Z AUTO 10006KT 10SM CLR 27/16 A2993 RMK AO2 SLP136 T02720161
                 TSNO =
2015-08-02 13:53 METAR KOXB 021753Z AUTO 08007KT 10SM CLR 29/16 A2994 RMK AO2 SLP140 T02890161
                 10294 20250 50000 TSNO =
2015-08-02 12:53 METAR KOXB 021653Z AUTO 09008KT 10SM CLR 28/19 A2995 RMK AO2 SLP142 T02830189
                 TSNO =
2015-08-02 11:53 METAR KOXB 021553Z AUTO 06007KT 10SM CLR 28/18 A2995 RMK AO2 SLP142 T02830183
                 TSNO =
2015-08-02 10:53 METAR KOXB 021453Z AUTO VRB05KT 10SM SCT100 28/18 A2994 RMK AO2 SLP139 T02830183
                 51011 TSNO =
2015-08-02 09:53 METAR KOXB 021353Z AUTO 10SM FEW095 28/21 A2993 RMK AO2 SLP136 T02830206 TSNO $
                 =
2015-08-02 08:53 METAR KOXB 021253Z AUTO VRB03KT 10SM CLR 27/20 A2992 RMK AO2 SLP133 T02720200
                 TSNO $ =
2015-08-02 07:53 METAR KOXB 021153Z AUTO 10SM CLR 24/20 A2991 RMK AO2 SLP128 T02440200 10244
                 20172 51011 TSNO =
2015-08-02 05:53 METAR KOXB 020953Z AUTO 00000KT 10SM CLR 19/17 A2989 RMK AO2 SLP121 T01890172
                 TSNO =
2015-08-02 04:53 METAR KOXB 020853Z AUTO 34003KT 10SM CLR 19/17 A2988 RMK AO2 SLP117 T01890172
                 55003 TSNO =

Support USWX by starting your Amazon purchase here.